sensor_id;sensor_type;location;lat;lon;timestamp;P1;durP1;ratioP1;P2;durP2;ratioP2
77838;SDS011;67034;43.226;27.932;2023-03-02T00:01:18;14.52;;;6.57;;
77838;SDS011;67034;43.226;27.932;2023-03-02T00:03:45;14.48;;;7.00;;
77838;SDS011;67034;43.226;27.932;2023-03-02T00:06:11;12.07;;;6.22;;
77838;SDS011;67034;43.226;27.932;2023-03-02T00:08:37;14.25;;;6.68;;
77838;SDS011;67034;43.226;27.932;2023-03-02T00:11:03;12.98;;;7.63;;
77838;SDS011;67034;43.226;27.932;2023-03-02T00:13:29;12.82;;;7.32;;
77838;SDS011;67034;43.226;27.932;2023-03-02T00:15:58;13.40;;;6.97;;
77838;SDS011;67034;43.226;27.932;2023-03-02T00:18:23;14.77;;;7.53;;
77838;SDS011;67034;43.226;27.932;2023-03-02T00:20:50;14.18;;;6.63;;
77838;SDS011;67034;43.226;27.932;2023-03-02T00:23:16;13.07;;;7.50;;
77838;SDS011;67034;43.226;27.932;2023-03-02T00:25:42;14.13;;;8.25;;
77838;SDS011;67034;43.226;27.932;2023-03-02T00:28:08;10.55;;;6.22;;
77838;SDS011;67034;43.226;27.932;2023-03-02T00:32:59;15.25;;;7.22;;
77838;SDS011;67034;43.226;27.932;2023-03-02T00:35:24;14.13;;;7.80;;
77838;SDS011;67034;43.226;27.932;2023-03-02T00:37:52;12.73;;;6.43;;
77838;SDS011;67034;43.226;27.932;2023-03-02T00:40:18;13.10;;;7.13;;
77838;SDS011;67034;43.226;27.932;2023-03-02T00:42:44;13.68;;;7.25;;
77838;SDS011;67034;43.226;27.932;2023-03-02T00:45:09;13.43;;;6.57;;
77838;SDS011;67034;43.226;27.932;2023-03-02T00:47:36;13.73;;;6.32;;
77838;SDS011;67034;43.226;27.932;2023-03-02T00:50:02;13.40;;;6.30;;
77838;SDS011;67034;43.226;27.932;2023-03-02T00:52:29;13.95;;;7.10;;
77838;SDS011;67034;43.226;27.932;2023-03-02T00:54:56;15.45;;;7.78;;
77838;SDS011;67034;43.226;27.932;2023-03-02T00:57:22;15.98;;;7.65;;
77838;SDS011;67034;43.226;27.932;2023-03-02T00:59:48;12.45;;;7.07;;
77838;SDS011;67034;43.226;27.932;2023-03-02T01:02:13;12.80;;;6.20;;
77838;SDS011;67034;43.226;27.932;2023-03-02T01:07:07;13.88;;;6.80;;
77838;SDS011;67034;43.226;27.932;2023-03-02T01:09:35;12.40;;;7.18;;
77838;SDS011;67034;43.226;27.932;2023-03-02T01:12:02;12.77;;;7.00;;
77838;SDS011;67034;43.226;27.932;2023-03-02T01:14:29;10.20;;;6.60;;
77838;SDS011;67034;43.226;27.932;2023-03-02T01:16:56;15.23;;;7.45;;
77838;SDS011;67034;43.226;27.932;2023-03-02T01:19:22;13.02;;;6.28;;
77838;SDS011;67034;43.226;27.932;2023-03-02T01:21:48;14.15;;;7.10;;
77838;SDS011;67034;43.226;27.932;2023-03-02T01:24:13;10.32;;;6.05;;
77838;SDS011;67034;43.226;27.932;2023-03-02T01:26:39;13.15;;;6.05;;
77838;SDS011;67034;43.226;27.932;2023-03-02T01:29:06;14.45;;;7.22;;
77838;SDS011;67034;43.226;27.932;2023-03-02T01:31:32;14.02;;;6.90;;
77838;SDS011;67034;43.226;27.932;2023-03-02T01:33:58;12.32;;;6.82;;
77838;SDS011;67034;43.226;27.932;2023-03-02T01:36:23;10.27;;;5.78;;
77838;SDS011;67034;43.226;27.932;2023-03-02T01:41:15;10.63;;;6.18;;
77838;SDS011;67034;43.226;27.932;2023-03-02T01:43:41;13.93;;;7.30;;
77838;SDS011;67034;43.226;27.932;2023-03-02T01:46:11;12.77;;;7.03;;
77838;SDS011;67034;43.226;27.932;2023-03-02T01:48:40;12.60;;;6.82;;
77838;SDS011;67034;43.226;27.932;2023-03-02T01:51:10;11.40;;;6.80;;
77838;SDS011;67034;43.226;27.932;2023-03-02T01:53:38;11.82;;;5.70;;
77838;SDS011;67034;43.226;27.932;2023-03-02T01:56:10;13.27;;;6.40;;
77838;SDS011;67034;43.226;27.932;2023-03-02T01:58:38;12.68;;;6.55;;
77838;SDS011;67034;43.226;27.932;2023-03-02T02:01:04;10.68;;;6.32;;
77838;SDS011;67034;43.226;27.932;2023-03-02T02:03:41;7.90;;;5.32;;
77838;SDS011;67034;43.226;27.932;2023-03-02T02:06:10;10.32;;;5.97;;
77838;SDS011;67034;43.226;27.932;2023-03-02T02:08:42;11.73;;;5.82;;
77838;SDS011;67034;43.226;27.932;2023-03-02T02:11:08;9.65;;;4.70;;
77838;SDS011;67034;43.226;27.932;2023-03-02T02:13:34;8.75;;;5.40;;
77838;SDS011;67034;43.226;27.932;2023-03-02T02:16:00;8.25;;;5.28;;
77838;SDS011;67034;43.226;27.932;2023-03-02T02:18:26;10.68;;;4.93;;
77838;SDS011;67034;43.226;27.932;2023-03-02T02:20:53;9.38;;;6.05;;
77838;SDS011;67034;43.226;27.932;2023-03-02T02:23:24;8.05;;;4.90;;
77838;SDS011;67034;43.226;27.932;2023-03-02T02:28:38;8.75;;;5.32;;
77838;SDS011;67034;43.226;27.932;2023-03-02T02:31:08;10.80;;;6.53;;
77838;SDS011;67034;43.226;27.932;2023-03-02T02:33:38;9.18;;;5.68;;
77838;SDS011;67034;43.226;27.932;2023-03-02T02:36:07;12.13;;;6.43;;
77838;SDS011;67034;43.226;27.932;2023-03-02T02:38:38;9.80;;;5.35;;
77838;SDS011;67034;43.226;27.932;2023-03-02T02:41:05;11.50;;;6.20;;
77838;SDS011;67034;43.226;27.932;2023-03-02T02:43:38;9.02;;;5.47;;
77838;SDS011;67034;43.226;27.932;2023-03-02T02:46:04;8.88;;;5.15;;
77838;SDS011;67034;43.226;27.932;2023-03-02T02:48:30;11.30;;;6.40;;
77838;SDS011;67034;43.226;27.932;2023-03-02T02:50:56;10.07;;;6.00;;
77838;SDS011;67034;43.226;27.932;2023-03-02T02:53:28;13.85;;;6.32;;
77838;SDS011;67034;43.226;27.932;2023-03-02T02:55:58;10.73;;;6.45;;
77838;SDS011;67034;43.226;27.932;2023-03-02T02:58:27;10.55;;;5.53;;
77838;SDS011;67034;43.226;27.932;2023-03-02T03:00:58;8.43;;;4.15;;
77838;SDS011;67034;43.226;27.932;2023-03-02T03:03:26;14.30;;;6.82;;
77838;SDS011;67034;43.226;27.932;2023-03-02T03:05:54;9.95;;;5.57;;
77838;SDS011;67034;43.226;27.932;2023-03-02T03:11:20;11.65;;;5.75;;
77838;SDS011;67034;43.226;27.932;2023-03-02T03:13:48;5.22;;;3.03;;
77838;SDS011;67034;43.226;27.932;2023-03-02T03:16:19;9.05;;;5.68;;
77838;SDS011;67034;43.226;27.932;2023-03-02T03:18:47;6.00;;;4.10;;
77838;SDS011;67034;43.226;27.932;2023-03-02T03:21:15;11.02;;;6.53;;
77838;SDS011;67034;43.226;27.932;2023-03-02T03:23:42;12.77;;;5.85;;
77838;SDS011;67034;43.226;27.932;2023-03-02T03:26:08;10.07;;;6.22;;
77838;SDS011;67034;43.226;27.932;2023-03-02T03:28:33;8.95;;;5.22;;
77838;SDS011;67034;43.226;27.932;2023-03-02T03:30:59;7.78;;;5.03;;
77838;SDS011;67034;43.226;27.932;2023-03-02T03:33:27;10.55;;;6.07;;
77838;SDS011;67034;43.226;27.932;2023-03-02T03:35:53;10.55;;;5.30;;
77838;SDS011;67034;43.226;27.932;2023-03-02T03:38:18;9.57;;;4.07;;
77838;SDS011;67034;43.226;27.932;2023-03-02T03:40:44;14.18;;;8.13;;
77838;SDS011;67034;43.226;27.932;2023-03-02T03:43:10;8.20;;;5.47;;
77838;SDS011;67034;43.226;27.932;2023-03-02T03:45:38;6.50;;;4.35;;
77838;SDS011;67034;43.226;27.932;2023-03-02T03:50:31;14.20;;;7.03;;
77838;SDS011;67034;43.226;27.932;2023-03-02T03:52:56;10.82;;;5.47;;
77838;SDS011;67034;43.226;27.932;2023-03-02T03:55:22;8.13;;;4.43;;
77838;SDS011;67034;43.226;27.932;2023-03-02T03:57:52;15.20;;;5.82;;
77838;SDS011;67034;43.226;27.932;2023-03-02T04:00:18;11.77;;;6.72;;
77838;SDS011;67034;43.226;27.932;2023-03-02T04:02:45;10.10;;;6.03;;
77838;SDS011;67034;43.226;27.932;2023-03-02T04:05:11;11.50;;;6.43;;
77838;SDS011;67034;43.226;27.932;2023-03-02T04:07:38;7.95;;;4.43;;
77838;SDS011;67034;43.226;27.932;2023-03-02T04:10:06;10.32;;;6.20;;
77838;SDS011;67034;43.226;27.932;2023-03-02T04:12:33;10.50;;;6.13;;
77838;SDS011;67034;43.226;27.932;2023-03-02T04:15:00;10.48;;;5.18;;
77838;SDS011;67034;43.226;27.932;2023-03-02T04:17:26;13.93;;;6.78;;
77838;SDS011;67034;43.226;27.932;2023-03-02T04:19:52;8.38;;;5.10;;
77838;SDS011;67034;43.226;27.932;2023-03-02T04:22:18;10.05;;;6.70;;
77838;SDS011;67034;43.226;27.932;2023-03-02T04:24:45;11.63;;;6.90;;
77838;SDS011;67034;43.226;27.932;2023-03-02T04:27:11;9.30;;;5.80;;
77838;SDS011;67034;43.226;27.932;2023-03-02T04:29:37;9.35;;;5.72;;
77838;SDS011;67034;43.226;27.932;2023-03-02T04:34:29;10.10;;;6.20;;
77838;SDS011;67034;43.226;27.932;2023-03-02T04:36:55;12.85;;;6.55;;
77838;SDS011;67034;43.226;27.932;2023-03-02T04:39:21;10.10;;;6.40;;
77838;SDS011;67034;43.226;27.932;2023-03-02T04:41:48;14.60;;;7.45;;
77838;SDS011;67034;43.226;27.932;2023-03-02T04:44:14;12.43;;;6.57;;
77838;SDS011;67034;43.226;27.932;2023-03-02T04:46:43;10.80;;;6.93;;
77838;SDS011;67034;43.226;27.932;2023-03-02T04:49:09;13.57;;;6.97;;
77838;SDS011;67034;43.226;27.932;2023-03-02T04:51:35;11.40;;;6.32;;
77838;SDS011;67034;43.226;27.932;2023-03-02T04:54:06;14.82;;;7.13;;
77838;SDS011;67034;43.226;27.932;2023-03-02T04:56:34;14.65;;;7.85;;
77838;SDS011;67034;43.226;27.932;2023-03-02T04:59:01;15.65;;;8.95;;
77838;SDS011;67034;43.226;27.932;2023-03-02T05:01:27;19.65;;;11.25;;
77838;SDS011;67034;43.226;27.932;2023-03-02T05:03:53;15.68;;;9.40;;
77838;SDS011;67034;43.226;27.932;2023-03-02T05:06:19;19.42;;;10.50;;
77838;SDS011;67034;43.226;27.932;2023-03-02T05:08:46;17.95;;;8.55;;
77838;SDS011;67034;43.226;27.932;2023-03-02T05:11:13;17.50;;;8.10;;
77838;SDS011;67034;43.226;27.932;2023-03-02T05:13:46;15.65;;;8.93;;
77838;SDS011;67034;43.226;27.932;2023-03-02T05:16:13;14.05;;;8.82;;
77838;SDS011;67034;43.226;27.932;2023-03-02T05:18:39;15.13;;;8.45;;
77838;SDS011;67034;43.226;27.932;2023-03-02T05:21:04;14.32;;;7.65;;
77838;SDS011;67034;43.226;27.932;2023-03-02T05:23:30;14.52;;;7.70;;
77838;SDS011;67034;43.226;27.932;2023-03-02T05:25:56;16.38;;;9.13;;
77838;SDS011;67034;43.226;27.932;2023-03-02T05:28:23;15.45;;;8.07;;
77838;SDS011;67034;43.226;27.932;2023-03-02T05:30:49;15.02;;;7.30;;
77838;SDS011;67034;43.226;27.932;2023-03-02T05:33:17;11.25;;;6.97;;
77838;SDS011;67034;43.226;27.932;2023-03-02T05:35:44;15.77;;;7.63;;
77838;SDS011;67034;43.226;27.932;2023-03-02T05:38:10;12.70;;;7.32;;
77838;SDS011;67034;43.226;27.932;2023-03-02T05:40:36;15.07;;;8.20;;
77838;SDS011;67034;43.226;27.932;2023-03-02T05:43:02;13.98;;;7.68;;
77838;SDS011;67034;43.226;27.932;2023-03-02T05:47:55;14.32;;;7.10;;
77838;SDS011;67034;43.226;27.932;2023-03-02T05:50:22;14.75;;;7.38;;
77838;SDS011;67034;43.226;27.932;2023-03-02T05:52:48;15.18;;;8.48;;
77838;SDS011;67034;43.226;27.932;2023-03-02T05:55:15;16.27;;;9.15;;
77838;SDS011;67034;43.226;27.932;2023-03-02T05:57:41;13.15;;;7.60;;
77838;SDS011;67034;43.226;27.932;2023-03-02T06:02:34;13.85;;;7.95;;
77838;SDS011;67034;43.226;27.932;2023-03-02T06:05:03;15.85;;;9.32;;
77838;SDS011;67034;43.226;27.932;2023-03-02T06:07:34;18.35;;;8.55;;
77838;SDS011;67034;43.226;27.932;2023-03-02T06:09:59;17.05;;;8.13;;
77838;SDS011;67034;43.226;27.932;2023-03-02T06:12:25;10.30;;;6.50;;
77838;SDS011;67034;43.226;27.932;2023-03-02T06:14:51;12.23;;;6.35;;
77838;SDS011;67034;43.226;27.932;2023-03-02T06:17:17;11.57;;;7.47;;
77838;SDS011;67034;43.226;27.932;2023-03-02T06:19:42;16.67;;;9.18;;
77838;SDS011;67034;43.226;27.932;2023-03-02T06:22:08;13.50;;;7.07;;
77838;SDS011;67034;43.226;27.932;2023-03-02T06:24:35;15.43;;;7.55;;
77838;SDS011;67034;43.226;27.932;2023-03-02T06:27:01;17.33;;;9.40;;
77838;SDS011;67034;43.226;27.932;2023-03-02T06:29:27;16.98;;;8.38;;
77838;SDS011;67034;43.226;27.932;2023-03-02T06:31:52;17.70;;;9.52;;
77838;SDS011;67034;43.226;27.932;2023-03-02T06:34:18;16.77;;;9.77;;
77838;SDS011;67034;43.226;27.932;2023-03-02T06:36:44;14.45;;;8.88;;
77838;SDS011;67034;43.226;27.932;2023-03-02T06:39:09;17.73;;;9.65;;
77838;SDS011;67034;43.226;27.932;2023-03-02T06:41:41;19.10;;;9.20;;
77838;SDS011;67034;43.226;27.932;2023-03-02T06:44:07;17.85;;;9.23;;
77838;SDS011;67034;43.226;27.932;2023-03-02T06:46:33;19.98;;;9.45;;
77838;SDS011;67034;43.226;27.932;2023-03-02T06:48:59;16.13;;;9.60;;
77838;SDS011;67034;43.226;27.932;2023-03-02T06:51:25;18.30;;;9.50;;
77838;SDS011;67034;43.226;27.932;2023-03-02T06:53:50;20.05;;;10.05;;
77838;SDS011;67034;43.226;27.932;2023-03-02T06:56:16;17.92;;;9.40;;
77838;SDS011;67034;43.226;27.932;2023-03-02T06:58:43;23.08;;;10.50;;
77838;SDS011;67034;43.226;27.932;2023-03-02T07:01:09;17.63;;;9.70;;
77838;SDS011;67034;43.226;27.932;2023-03-02T07:03:34;21.13;;;10.15;;
77838;SDS011;67034;43.226;27.932;2023-03-02T07:06:00;18.10;;;10.27;;
77838;SDS011;67034;43.226;27.932;2023-03-02T07:10:52;14.55;;;7.97;;
77838;SDS011;67034;43.226;27.932;2023-03-02T07:13:17;17.58;;;9.65;;
77838;SDS011;67034;43.226;27.932;2023-03-02T07:18:10;17.48;;;9.35;;
77838;SDS011;67034;43.226;27.932;2023-03-02T07:20:36;19.33;;;10.05;;
77838;SDS011;67034;43.226;27.932;2023-03-02T07:23:02;25.25;;;12.35;;
77838;SDS011;67034;43.226;27.932;2023-03-02T07:25:28;20.17;;;10.25;;
77838;SDS011;67034;43.226;27.932;2023-03-02T07:27:54;20.38;;;11.15;;
77838;SDS011;67034;43.226;27.932;2023-03-02T07:32:50;18.15;;;9.85;;
77838;SDS011;67034;43.226;27.932;2023-03-02T07:35:16;23.35;;;10.48;;
77838;SDS011;67034;43.226;27.932;2023-03-02T07:40:08;17.05;;;9.45;;
77838;SDS011;67034;43.226;27.932;2023-03-02T07:42:35;18.67;;;9.98;;
77838;SDS011;67034;43.226;27.932;2023-03-02T07:47:28;18.15;;;9.95;;
77838;SDS011;67034;43.226;27.932;2023-03-02T07:52:21;16.67;;;9.25;;
77838;SDS011;67034;43.226;27.932;2023-03-02T07:57:12;21.80;;;10.60;;
77838;SDS011;67034;43.226;27.932;2023-03-02T07:59:40;20.33;;;10.10;;
77838;SDS011;67034;43.226;27.932;2023-03-02T08:04:33;18.50;;;9.65;;
77838;SDS011;67034;43.226;27.932;2023-03-02T08:07:00;22.20;;;10.13;;
77838;SDS011;67034;43.226;27.932;2023-03-02T08:09:26;17.33;;;10.02;;
77838;SDS011;67034;43.226;27.932;2023-03-02T08:14:17;17.57;;;10.07;;
77838;SDS011;67034;43.226;27.932;2023-03-02T08:19:08;23.20;;;11.05;;
77838;SDS011;67034;43.226;27.932;2023-03-02T08:21:34;17.63;;;10.20;;
77838;SDS011;67034;43.226;27.932;2023-03-02T08:26:29;18.17;;;10.43;;
77838;SDS011;67034;43.226;27.932;2023-03-02T08:28:55;19.60;;;10.55;;
77838;SDS011;67034;43.226;27.932;2023-03-02T08:33:46;16.87;;;9.60;;
77838;SDS011;67034;43.226;27.932;2023-03-02T08:38:39;24.08;;;11.73;;
77838;SDS011;67034;43.226;27.932;2023-03-02T08:43:32;20.02;;;10.52;;
77838;SDS011;67034;43.226;27.932;2023-03-02T08:45:59;24.55;;;11.60;;
77838;SDS011;67034;43.226;27.932;2023-03-02T08:48:25;19.27;;;10.82;;
77838;SDS011;67034;43.226;27.932;2023-03-02T08:50:55;20.48;;;11.07;;
77838;SDS011;67034;43.226;27.932;2023-03-02T08:53:21;21.42;;;11.05;;
77838;SDS011;67034;43.226;27.932;2023-03-02T08:55:47;22.73;;;11.38;;
77838;SDS011;67034;43.226;27.932;2023-03-02T09:00:40;20.48;;;11.63;;
77838;SDS011;67034;43.226;27.932;2023-03-02T09:05:31;20.73;;;10.70;;
77838;SDS011;67034;43.226;27.932;2023-03-02T09:07:57;20.77;;;12.20;;
77838;SDS011;67034;43.226;27.932;2023-03-02T09:10:22;26.73;;;12.60;;
77838;SDS011;67034;43.226;27.932;2023-03-02T09:15:15;18.17;;;11.63;;
77838;SDS011;67034;43.226;27.932;2023-03-02T09:17:41;18.00;;;10.90;;
77838;SDS011;67034;43.226;27.932;2023-03-02T09:22:33;21.48;;;10.43;;
77838;SDS011;67034;43.226;27.932;2023-03-02T09:25:00;22.48;;;13.10;;
77838;SDS011;67034;43.226;27.932;2023-03-02T09:29:51;15.75;;;8.38;;
77838;SDS011;67034;43.226;27.932;2023-03-02T09:32:18;19.00;;;9.87;;
77838;SDS011;67034;43.226;27.932;2023-03-02T09:34:44;18.23;;;9.13;;
77838;SDS011;67034;43.226;27.932;2023-03-02T09:39:35;14.60;;;7.45;;
77838;SDS011;67034;43.226;27.932;2023-03-02T09:45:02;12.48;;;6.97;;
77838;SDS011;67034;43.226;27.932;2023-03-02T09:47:51;10.63;;;7.15;;
77838;SDS011;67034;43.226;27.932;2023-03-02T09:50:29;16.17;;;9.27;;
77838;SDS011;67034;43.226;27.932;2023-03-02T09:53:10;16.17;;;9.02;;
77838;SDS011;67034;43.226;27.932;2023-03-02T09:55:57;13.68;;;7.15;;
77838;SDS011;67034;43.226;27.932;2023-03-02T09:58:29;11.85;;;6.32;;
77838;SDS011;67034;43.226;27.932;2023-03-02T10:01:11;11.99;;;7.54;;
77838;SDS011;67034;43.226;27.932;2023-03-02T10:03:43;19.85;;;13.52;;
77838;SDS011;67034;43.226;27.932;2023-03-02T10:06:14;17.55;;;9.00;;
77838;SDS011;67034;43.226;27.932;2023-03-02T10:08:40;17.80;;;9.25;;
77838;SDS011;67034;43.226;27.932;2023-03-02T10:11:09;13.57;;;7.82;;
77838;SDS011;67034;43.226;27.932;2023-03-02T10:13:42;18.75;;;10.35;;
77838;SDS011;67034;43.226;27.932;2023-03-02T10:16:14;13.80;;;8.77;;
77838;SDS011;67034;43.226;27.932;2023-03-02T10:18:50;17.98;;;10.38;;
77838;SDS011;67034;43.226;27.932;2023-03-02T10:21:25;16.23;;;9.32;;
77838;SDS011;67034;43.226;27.932;2023-03-02T10:23:55;16.75;;;9.35;;
77838;SDS011;67034;43.226;27.932;2023-03-02T10:26:27;17.27;;;9.60;;
77838;SDS011;67034;43.226;27.932;2023-03-02T10:29:01;15.18;;;9.82;;
77838;SDS011;67034;43.226;27.932;2023-03-02T10:31:39;17.50;;;11.18;;
77838;SDS011;67034;43.226;27.932;2023-03-02T10:34:09;18.85;;;11.18;;
77838;SDS011;67034;43.226;27.932;2023-03-02T10:36:36;16.50;;;8.82;;
77838;SDS011;67034;43.226;27.932;2023-03-02T10:39:05;13.65;;;8.95;;
77838;SDS011;67034;43.226;27.932;2023-03-02T10:41:36;18.58;;;11.00;;
77838;SDS011;67034;43.226;27.932;2023-03-02T10:44:06;18.75;;;10.45;;
77838;SDS011;67034;43.226;27.932;2023-03-02T10:46:40;18.30;;;9.95;;
77838;SDS011;67034;43.226;27.932;2023-03-02T10:49:21;15.75;;;9.25;;
77838;SDS011;67034;43.226;27.932;2023-03-02T10:51:53;16.08;;;9.95;;
77838;SDS011;67034;43.226;27.932;2023-03-02T10:54:21;16.00;;;8.98;;
77838;SDS011;67034;43.226;27.932;2023-03-02T10:56:47;14.63;;;9.07;;
77838;SDS011;67034;43.226;27.932;2023-03-02T10:59:37;15.38;;;9.10;;
77838;SDS011;67034;43.226;27.932;2023-03-02T11:04:39;17.95;;;10.70;;
77838;SDS011;67034;43.226;27.932;2023-03-02T11:07:08;15.80;;;8.10;;
77838;SDS011;67034;43.226;27.932;2023-03-02T11:09:37;15.77;;;8.85;;
77838;SDS011;67034;43.226;27.932;2023-03-02T11:12:03;16.77;;;10.60;;
77838;SDS011;67034;43.226;27.932;2023-03-02T11:14:29;16.20;;;8.98;;
77838;SDS011;67034;43.226;27.932;2023-03-02T11:16:55;17.63;;;10.73;;
77838;SDS011;67034;43.226;27.932;2023-03-02T11:19:23;16.15;;;9.70;;
77838;SDS011;67034;43.226;27.932;2023-03-02T11:21:57;16.75;;;9.43;;
77838;SDS011;67034;43.226;27.932;2023-03-02T11:24:28;17.65;;;10.68;;
77838;SDS011;67034;43.226;27.932;2023-03-02T11:26:58;21.52;;;13.45;;
77838;SDS011;67034;43.226;27.932;2023-03-02T11:29:28;33.63;;;12.82;;
77838;SDS011;67034;43.226;27.932;2023-03-02T11:31:57;21.10;;;11.80;;
77838;SDS011;67034;43.226;27.932;2023-03-02T11:34:29;19.15;;;10.13;;
77838;SDS011;67034;43.226;27.932;2023-03-02T11:39:55;16.33;;;9.95;;
77838;SDS011;67034;43.226;27.932;2023-03-02T11:42:27;22.40;;;12.15;;
77838;SDS011;67034;43.226;27.932;2023-03-02T11:44:55;14.45;;;9.23;;
77838;SDS011;67034;43.226;27.932;2023-03-02T11:47:22;24.92;;;12.00;;
77838;SDS011;67034;43.226;27.932;2023-03-02T11:49:51;20.25;;;10.55;;
77838;SDS011;67034;43.226;27.932;2023-03-02T11:52:22;19.75;;;9.40;;
77838;SDS011;67034;43.226;27.932;2023-03-02T11:54:51;18.58;;;9.88;;
77838;SDS011;67034;43.226;27.932;2023-03-02T11:57:22;18.20;;;10.73;;
77838;SDS011;67034;43.226;27.932;2023-03-02T11:59:51;21.33;;;10.20;;
77838;SDS011;67034;43.226;27.932;2023-03-02T12:02:19;18.00;;;10.00;;
77838;SDS011;67034;43.226;27.932;2023-03-02T12:04:45;18.55;;;9.57;;
77838;SDS011;67034;43.226;27.932;2023-03-02T12:07:16;20.60;;;10.90;;
77838;SDS011;67034;43.226;27.932;2023-03-02T12:09:57;17.06;;;10.46;;
77838;SDS011;67034;43.226;27.932;2023-03-02T12:12:30;17.98;;;9.07;;
77838;SDS011;67034;43.226;27.932;2023-03-02T12:14:59;19.85;;;10.40;;
77838;SDS011;67034;43.226;27.932;2023-03-02T12:17:29;25.80;;;10.55;;
77838;SDS011;67034;43.226;27.932;2023-03-02T12:20:06;15.48;;;8.25;;
77838;SDS011;67034;43.226;27.932;2023-03-02T12:22:34;14.05;;;8.25;;
77838;SDS011;67034;43.226;27.932;2023-03-02T12:25:04;12.80;;;8.00;;
77838;SDS011;67034;43.226;27.932;2023-03-02T12:27:35;18.65;;;11.20;;
77838;SDS011;67034;43.226;27.932;2023-03-02T12:35:44;15.93;;;8.93;;
77838;SDS011;67034;43.226;27.932;2023-03-02T12:38:21;17.00;;;10.52;;
77838;SDS011;67034;43.226;27.932;2023-03-02T12:40:57;17.48;;;9.20;;
77838;SDS011;67034;43.226;27.932;2023-03-02T12:43:37;14.30;;;9.50;;
77838;SDS011;67034;43.226;27.932;2023-03-02T12:48:55;12.82;;;8.20;;
77838;SDS011;67034;43.226;27.932;2023-03-02T12:51:25;18.90;;;9.27;;
77838;SDS011;67034;43.226;27.932;2023-03-02T12:54:00;16.30;;;9.60;;
77838;SDS011;67034;43.226;27.932;2023-03-02T12:56:29;15.57;;;8.63;;
77838;SDS011;67034;43.226;27.932;2023-03-02T12:58:54;17.33;;;9.10;;
77838;SDS011;67034;43.226;27.932;2023-03-02T13:01:21;15.20;;;8.75;;
77838;SDS011;67034;43.226;27.932;2023-03-02T13:03:47;16.52;;;10.18;;
77838;SDS011;67034;43.226;27.932;2023-03-02T13:06:14;17.25;;;9.30;;
77838;SDS011;67034;43.226;27.932;2023-03-02T13:08:41;15.18;;;9.25;;
77838;SDS011;67034;43.226;27.932;2023-03-02T13:11:08;14.88;;;8.45;;
77838;SDS011;67034;43.226;27.932;2023-03-02T13:13:36;14.27;;;8.98;;
77838;SDS011;67034;43.226;27.932;2023-03-02T13:16:05;18.42;;;11.18;;
77838;SDS011;67034;43.226;27.932;2023-03-02T13:18:47;21.90;;;10.55;;
77838;SDS011;67034;43.226;27.932;2023-03-02T13:21:17;19.15;;;10.32;;
77838;SDS011;67034;43.226;27.932;2023-03-02T13:23:44;19.40;;;10.20;;
77838;SDS011;67034;43.226;27.932;2023-03-02T13:26:19;16.00;;;9.90;;
77838;SDS011;67034;43.226;27.932;2023-03-02T13:28:50;18.80;;;10.38;;
77838;SDS011;67034;43.226;27.932;2023-03-02T13:31:25;18.17;;;11.07;;
77838;SDS011;67034;43.226;27.932;2023-03-02T13:33:51;21.60;;;10.55;;
77838;SDS011;67034;43.226;27.932;2023-03-02T13:36:18;22.75;;;11.30;;
77838;SDS011;67034;43.226;27.932;2023-03-02T13:38:46;14.90;;;9.30;;
77838;SDS011;67034;43.226;27.932;2023-03-02T13:41:19;15.45;;;9.02;;
77838;SDS011;67034;43.226;27.932;2023-03-02T13:43:46;17.33;;;9.18;;
77838;SDS011;67034;43.226;27.932;2023-03-02T13:46:28;15.40;;;9.82;;
77838;SDS011;67034;43.226;27.932;2023-03-02T13:49:00;16.85;;;8.98;;
77838;SDS011;67034;43.226;27.932;2023-03-02T13:51:28;17.83;;;9.50;;
77838;SDS011;67034;43.226;27.932;2023-03-02T13:53:57;17.23;;;8.75;;
77838;SDS011;67034;43.226;27.932;2023-03-02T13:56:26;16.60;;;9.63;;
77838;SDS011;67034;43.226;27.932;2023-03-02T13:58:53;15.90;;;9.50;;
77838;SDS011;67034;43.226;27.932;2023-03-02T14:01:19;14.43;;;9.52;;
77838;SDS011;67034;43.226;27.932;2023-03-02T14:03:47;15.85;;;8.93;;
77838;SDS011;67034;43.226;27.932;2023-03-02T14:06:12;15.07;;;8.65;;
77838;SDS011;67034;43.226;27.932;2023-03-02T14:08:38;14.33;;;9.30;;
77838;SDS011;67034;43.226;27.932;2023-03-02T14:11:04;14.75;;;8.48;;
77838;SDS011;67034;43.226;27.932;2023-03-02T14:13:33;13.00;;;7.97;;
77838;SDS011;67034;43.226;27.932;2023-03-02T14:16:02;13.10;;;7.35;;
77838;SDS011;67034;43.226;27.932;2023-03-02T14:18:29;14.95;;;7.18;;
77838;SDS011;67034;43.226;27.932;2023-03-02T14:21:01;13.38;;;7.45;;
77838;SDS011;67034;43.226;27.932;2023-03-02T14:23:27;11.60;;;7.10;;
77838;SDS011;67034;43.226;27.932;2023-03-02T14:25:53;13.07;;;7.72;;
77838;SDS011;67034;43.226;27.932;2023-03-02T14:28:22;12.60;;;7.70;;
77838;SDS011;67034;43.226;27.932;2023-03-02T14:30:51;13.50;;;7.75;;
77838;SDS011;67034;43.226;27.932;2023-03-02T14:33:19;12.80;;;7.05;;
77838;SDS011;67034;43.226;27.932;2023-03-02T14:35:46;12.40;;;7.25;;
77838;SDS011;67034;43.226;27.932;2023-03-02T14:38:14;11.38;;;6.95;;
77838;SDS011;67034;43.226;27.932;2023-03-02T14:40:40;17.50;;;7.25;;
77838;SDS011;67034;43.226;27.932;2023-03-02T14:43:07;13.60;;;7.18;;
77838;SDS011;67034;43.226;27.932;2023-03-02T14:45:33;12.40;;;7.10;;
77838;SDS011;67034;43.226;27.932;2023-03-02T14:47:59;13.83;;;7.43;;
77838;SDS011;67034;43.226;27.932;2023-03-02T14:50:25;15.60;;;8.40;;
77838;SDS011;67034;43.226;27.932;2023-03-02T14:52:51;11.10;;;6.85;;
77838;SDS011;67034;43.226;27.932;2023-03-02T14:55:21;13.95;;;7.00;;
77838;SDS011;67034;43.226;27.932;2023-03-02T14:57:50;12.93;;;6.68;;
77838;SDS011;67034;43.226;27.932;2023-03-02T15:00:19;11.50;;;6.38;;
77838;SDS011;67034;43.226;27.932;2023-03-02T15:02:45;10.77;;;6.68;;
77838;SDS011;67034;43.226;27.932;2023-03-02T15:05:11;9.68;;;6.00;;
77838;SDS011;67034;43.226;27.932;2023-03-02T15:07:36;10.45;;;6.30;;
77838;SDS011;67034;43.226;27.932;2023-03-02T15:10:03;11.52;;;5.90;;
77838;SDS011;67034;43.226;27.932;2023-03-02T15:12:31;10.40;;;6.35;;
77838;SDS011;67034;43.226;27.932;2023-03-02T15:14:57;12.07;;;6.47;;
77838;SDS011;67034;43.226;27.932;2023-03-02T15:17:23;10.65;;;5.63;;
77838;SDS011;67034;43.226;27.932;2023-03-02T15:19:49;10.43;;;6.25;;
77838;SDS011;67034;43.226;27.932;2023-03-02T15:24:40;10.75;;;5.78;;
77838;SDS011;67034;43.226;27.932;2023-03-02T15:29:33;11.07;;;6.20;;
77838;SDS011;67034;43.226;27.932;2023-03-02T15:31:58;10.05;;;6.40;;
77838;SDS011;67034;43.226;27.932;2023-03-02T15:36:49;9.13;;;5.57;;
77838;SDS011;67034;43.226;27.932;2023-03-02T15:39:15;10.37;;;5.93;;
77838;SDS011;67034;43.226;27.932;2023-03-02T15:44:07;10.70;;;6.30;;
77838;SDS011;67034;43.226;27.932;2023-03-02T15:46:41;9.43;;;6.25;;
77838;SDS011;67034;43.226;27.932;2023-03-02T15:49:06;12.48;;;7.00;;
77838;SDS011;67034;43.226;27.932;2023-03-02T15:51:33;13.10;;;8.70;;
77838;SDS011;67034;43.226;27.932;2023-03-02T15:56:24;11.18;;;6.35;;
77838;SDS011;67034;43.226;27.932;2023-03-02T15:58:50;14.35;;;6.75;;
77838;SDS011;67034;43.226;27.932;2023-03-02T16:03:43;10.68;;;6.35;;
77838;SDS011;67034;43.226;27.932;2023-03-02T16:06:12;9.48;;;5.90;;
77838;SDS011;67034;43.226;27.932;2023-03-02T16:08:39;13.85;;;6.60;;